sensor_id;sensor_type;location;lat;lon;timestamp;pressure;altitude;pressure_sealevel;temperature;humidity
54512;BME280;40419;47.438;19.026;2022-12-29T00:02:19;100493.69;;;-0.56;100.00
54512;BME280;40419;47.438;19.026;2022-12-29T00:04:49;100501.97;;;-0.72;100.00
54512;BME280;40419;47.438;19.026;2022-12-29T00:07:18;100509.94;;;-0.72;100.00
54512;BME280;40419;47.438;19.026;2022-12-29T00:09:44;100505.63;;;-0.61;100.00
54512;BME280;40419;47.438;19.026;2022-12-29T00:12:09;100503.66;;;-0.70;100.00
54512;BME280;40419;47.438;19.026;2022-12-29T00:14:37;100497.72;;;-0.74;100.00
54512;BME280;40419;47.438;19.026;2022-12-29T00:17:21;100500.56;;;-0.88;100.00
54512;BME280;40419;47.438;19.026;2022-12-29T00:19:49;100492.41;;;-0.98;100.00
54512;BME280;40419;47.438;19.026;2022-12-29T00:22:36;100490.97;;;-1.02;100.00
54512;BME280;40419;47.438;19.026;2022-12-29T00:25:20;100486.44;;;-0.89;100.00
54512;BME280;40419;47.438;19.026;2022-12-29T00:28:04;100486.59;;;-1.03;100.00
54512;BME280;40419;47.438;19.026;2022-12-29T00:30:50;100498.28;;;-0.82;100.00
54512;BME280;40419;47.438;19.026;2022-12-29T00:33:35;100498.81;;;-0.77;100.00
54512;BME280;40419;47.438;19.026;2022-12-29T00:38:59;100495.13;;;-0.87;100.00
54512;BME280;40419;47.438;19.026;2022-12-29T00:41:44;100491.88;;;-0.91;100.00
54512;BME280;40419;47.438;19.026;2022-12-29T00:44:29;100490.53;;;-0.85;100.00
54512;BME280;40419;47.438;19.026;2022-12-29T00:46:57;100489.09;;;-0.89;100.00
54512;BME280;40419;47.438;19.026;2022-12-29T00:49:27;100497.84;;;-0.76;100.00
54512;BME280;40419;47.438;19.026;2022-12-29T00:54:28;100499.84;;;-0.91;100.00
54512;BME280;40419;47.438;19.026;2022-12-29T00:56:56;100490.28;;;-0.93;100.00
54512;BME280;40419;47.438;19.026;2022-12-29T00:59:22;100488.78;;;-0.97;100.00
54512;BME280;40419;47.438;19.026;2022-12-29T01:01:54;100496.28;;;-0.78;100.00
54512;BME280;40419;47.438;19.026;2022-12-29T01:04:24;100498.47;;;-0.96;100.00
54512;BME280;40419;47.438;19.026;2022-12-29T01:06:51;100494.34;;;-1.00;100.00
54512;BME280;40419;47.438;19.026;2022-12-29T01:09:17;100490.03;;;-0.90;100.00
54512;BME280;40419;47.438;19.026;2022-12-29T01:12:02;100488.22;;;-0.90;100.00
54512;BME280;40419;47.438;19.026;2022-12-29T01:14:28;100492.50;;;-1.00;100.00
54512;BME280;40419;47.438;19.026;2022-12-29T01:16:56;100479.41;;;-0.90;100.00
54512;BME280;40419;47.438;19.026;2022-12-29T01:19:22;100481.16;;;-1.02;100.00
54512;BME280;40419;47.438;19.026;2022-12-29T01:21:51;100485.56;;;-0.90;100.00
54512;BME280;40419;47.438;19.026;2022-12-29T01:24:20;100479.28;;;-0.88;100.00
54512;BME280;40419;47.438;19.026;2022-12-29T01:26:46;100483.97;;;-0.92;100.00
54512;BME280;40419;47.438;19.026;2022-12-29T01:29:12;100484.63;;;-0.88;100.00
54512;BME280;40419;47.438;19.026;2022-12-29T01:31:38;100494.06;;;-0.84;100.00
54512;BME280;40419;47.438;19.026;2022-12-29T01:34:07;100480.03;;;-0.86;100.00
54512;BME280;40419;47.438;19.026;2022-12-29T01:36:36;100474.69;;;-0.86;100.00
54512;BME280;40419;47.438;19.026;2022-12-29T01:39:03;100479.63;;;-0.93;100.00
54512;BME280;40419;47.438;19.026;2022-12-29T01:41:31;100483.78;;;-0.89;100.00
54512;BME280;40419;47.438;19.026;2022-12-29T01:44:00;100491.41;;;-0.84;100.00
54512;BME280;40419;47.438;19.026;2022-12-29T01:51:31;100473.06;;;-1.00;100.00
54512;BME280;40419;47.438;19.026;2022-12-29T01:54:05;100475.69;;;-0.87;100.00
54512;BME280;40419;47.438;19.026;2022-12-29T01:56:45;100479.78;;;-0.83;100.00
54512;BME280;40419;47.438;19.026;2022-12-29T01:59:20;100463.16;;;-0.98;100.00
54512;BME280;40419;47.438;19.026;2022-12-29T02:01:48;100467.53;;;-0.97;100.00
54512;BME280;40419;47.438;19.026;2022-12-29T02:04:17;100467.72;;;-0.87;100.00
54512;BME280;40419;47.438;19.026;2022-12-29T02:07:08;100469.50;;;-0.88;100.00
54512;BME280;40419;47.438;19.026;2022-12-29T02:09:36;100457.31;;;-0.91;100.00
54512;BME280;40419;47.438;19.026;2022-12-29T02:12:05;100470.19;;;-0.97;100.00
54512;BME280;40419;47.438;19.026;2022-12-29T02:14:38;100449.03;;;-0.99;100.00
54512;BME280;40419;47.438;19.026;2022-12-29T02:31:51;100439.78;;;-0.82;100.00
54512;BME280;40419;47.438;19.026;2022-12-29T02:35:17;100438.13;;;-0.83;100.00
54512;BME280;40419;47.438;19.026;2022-12-29T02:37:41;100443.56;;;-0.84;100.00
54512;BME280;40419;47.438;19.026;2022-12-29T02:40:31;100438.69;;;-0.91;100.00
54512;BME280;40419;47.438;19.026;2022-12-29T02:43:08;100442.78;;;-0.86;100.00
54512;BME280;40419;47.438;19.026;2022-12-29T02:48:25;100426.38;;;-0.80;100.00
54512;BME280;40419;47.438;19.026;2022-12-29T02:50:57;100430.13;;;-0.83;100.00
54512;BME280;40419;47.438;19.026;2022-12-29T02:53:28;100428.19;;;-0.81;100.00
54512;BME280;40419;47.438;19.026;2022-12-29T02:56:17;100430.81;;;-0.92;100.00
54512;BME280;40419;47.438;19.026;2022-12-29T02:58:45;100428.91;;;-0.90;100.00
54512;BME280;40419;47.438;19.026;2022-12-29T03:03:51;100434.09;;;-0.88;100.00
54512;BME280;40419;47.438;19.026;2022-12-29T03:06:30;100417.63;;;-0.94;100.00
54512;BME280;40419;47.438;19.026;2022-12-29T03:15:10;100420.09;;;-0.79;100.00
54512;BME280;40419;47.438;19.026;2022-12-29T03:18:13;100418.09;;;-1.00;100.00
54512;BME280;40419;47.438;19.026;2022-12-29T03:21:02;100422.69;;;-1.02;100.00
54512;BME280;40419;47.438;19.026;2022-12-29T03:23:31;100414.25;;;-0.96;100.00
54512;BME280;40419;47.438;19.026;2022-12-29T03:26:02;100417.63;;;-0.94;100.00
54512;BME280;40419;47.438;19.026;2022-12-29T03:28:37;100411.00;;;-0.88;100.00
54512;BME280;40419;47.438;19.026;2022-12-29T03:31:06;100405.66;;;-0.99;100.00
54512;BME280;40419;47.438;19.026;2022-12-29T03:33:38;100395.28;;;-0.91;100.00
54512;BME280;40419;47.438;19.026;2022-12-29T03:36:11;100396.22;;;-1.03;100.00
54512;BME280;40419;47.438;19.026;2022-12-29T03:38:49;100400.13;;;-0.96;100.00
54512;BME280;40419;47.438;19.026;2022-12-29T03:41:20;100395.81;;;-0.86;100.00
54512;BME280;40419;47.438;19.026;2022-12-29T03:43:48;100389.47;;;-0.96;100.00
54512;BME280;40419;47.438;19.026;2022-12-29T03:46:19;100394.28;;;-1.01;100.00
54512;BME280;40419;47.438;19.026;2022-12-29T03:48:49;100396.94;;;-1.01;100.00
54512;BME280;40419;47.438;19.026;2022-12-29T03:51:16;100396.47;;;-0.95;100.00
54512;BME280;40419;47.438;19.026;2022-12-29T03:53:46;100396.53;;;-0.84;100.00
54512;BME280;40419;47.438;19.026;2022-12-29T03:56:12;100397.09;;;-0.92;100.00
54512;BME280;40419;47.438;19.026;2022-12-29T03:58:38;100408.34;;;-0.88;100.00
54512;BME280;40419;47.438;19.026;2022-12-29T04:01:09;100398.59;;;-0.87;100.00
54512;BME280;40419;47.438;19.026;2022-12-29T04:03:40;100399.38;;;-0.98;100.00
54512;BME280;40419;47.438;19.026;2022-12-29T04:06:09;100390.06;;;-1.04;100.00
54512;BME280;40419;47.438;19.026;2022-12-29T04:08:43;100391.00;;;-1.05;100.00
54512;BME280;40419;47.438;19.026;2022-12-29T04:11:09;100394.28;;;-1.01;100.00
54512;BME280;40419;47.438;19.026;2022-12-29T04:13:34;100391.16;;;-0.95;100.00
54512;BME280;40419;47.438;19.026;2022-12-29T04:16:03;100403.72;;;-0.97;100.00
54512;BME280;40419;47.438;19.026;2022-12-29T04:18:31;100406.00;;;-1.04;100.00
54512;BME280;40419;47.438;19.026;2022-12-29T04:21:00;100400.69;;;-1.04;100.00
54512;BME280;40419;47.438;19.026;2022-12-29T04:23:29;100399.09;;;-1.07;100.00
54512;BME280;40419;47.438;19.026;2022-12-29T04:25:56;100395.84;;;-1.10;100.00
54512;BME280;40419;47.438;19.026;2022-12-29T04:28:27;100406.50;;;-0.99;100.00
54512;BME280;40419;47.438;19.026;2022-12-29T04:31:12;100406.44;;;-0.86;100.00
54512;BME280;40419;47.438;19.026;2022-12-29T04:33:43;100406.50;;;-0.99;100.00
54512;BME280;40419;47.438;19.026;2022-12-29T04:36:09;100405.56;;;-0.98;100.00
54512;BME280;40419;47.438;19.026;2022-12-29T04:38:39;100403.91;;;-0.87;100.00
54512;BME280;40419;47.438;19.026;2022-12-29T04:41:05;100405.56;;;-0.86;100.00
54512;BME280;40419;47.438;19.026;2022-12-29T04:43:32;100399.03;;;-0.94;100.00
54512;BME280;40419;47.438;19.026;2022-12-29T04:46:16;100405.09;;;-0.80;100.00
54512;BME280;40419;47.438;19.026;2022-12-29T04:48:50;100400.53;;;-0.78;100.00
54512;BME280;40419;47.438;19.026;2022-12-29T04:51:29;100397.53;;;-0.74;100.00
54512;BME280;40419;47.438;19.026;2022-12-29T04:53:54;100395.34;;;-0.80;100.00
54512;BME280;40419;47.438;19.026;2022-12-29T04:56:22;100387.63;;;-0.72;100.00
54512;BME280;40419;47.438;19.026;2022-12-29T04:58:50;100387.78;;;-0.62;100.00
54512;BME280;40419;47.438;19.026;2022-12-29T05:01:19;100391.56;;;-0.77;100.00
54512;BME280;40419;47.438;19.026;2022-12-29T05:03:44;100389.91;;;-0.67;100.00
54512;BME280;40419;47.438;19.026;2022-12-29T05:06:10;100387.72;;;-0.73;100.00
54512;BME280;40419;47.438;19.026;2022-12-29T05:08:38;100394.59;;;-0.82;100.00
54512;BME280;40419;47.438;19.026;2022-12-29T05:11:06;100388.19;;;-0.79;100.00
54512;BME280;40419;47.438;19.026;2022-12-29T05:13:32;100392.47;;;-0.65;100.00
54512;BME280;40419;47.438;19.026;2022-12-29T05:16:02;100386.78;;;-0.72;100.00
54512;BME280;40419;47.438;19.026;2022-12-29T05:18:28;100391.00;;;-0.69;100.00
54512;BME280;40419;47.438;19.026;2022-12-29T05:20:58;100396.91;;;-0.77;100.00
54512;BME280;40419;47.438;19.026;2022-12-29T05:23:26;100408.63;;;-0.80;100.00
54512;BME280;40419;47.438;19.026;2022-12-29T05:25:58;100407.09;;;-1.07;100.00
54512;BME280;40419;47.438;19.026;2022-12-29T05:28:39;100399.78;;;-0.92;100.00
54512;BME280;40419;47.438;19.026;2022-12-29T05:31:11;100384.06;;;-0.95;100.00
54512;BME280;40419;47.438;19.026;2022-12-29T05:33:39;100393.69;;;-0.94;100.00
54512;BME280;40419;47.438;19.026;2022-12-29T05:36:08;100387.28;;;-1.02;100.00
54512;BME280;40419;47.438;19.026;2022-12-29T05:38:36;100399.88;;;-0.93;100.00
54512;BME280;40419;47.438;19.026;2022-12-29T05:41:04;100387.06;;;-0.99;100.00
54512;BME280;40419;47.438;19.026;2022-12-29T05:43:53;100391.00;;;-1.05;100.00
54512;BME280;40419;47.438;19.026;2022-12-29T05:46:29;100384.22;;;-1.09;100.00
54512;BME280;40419;47.438;19.026;2022-12-29T05:49:07;100373.06;;;-0.90;100.00
54512;BME280;40419;47.438;19.026;2022-12-29T05:51:51;100380.88;;;-1.00;100.00
54512;BME280;40419;47.438;19.026;2022-12-29T05:54:17;100373.66;;;-0.98;100.00
54512;BME280;40419;47.438;19.026;2022-12-29T05:56:45;100379.56;;;-0.94;100.00
54512;BME280;40419;47.438;19.026;2022-12-29T05:59:13;100370.00;;;-1.08;100.00
54512;BME280;40419;47.438;19.026;2022-12-29T06:01:41;100365.56;;;-0.96;100.00
54512;BME280;40419;47.438;19.026;2022-12-29T06:04:10;100371.06;;;-1.11;100.00
54512;BME280;40419;47.438;19.026;2022-12-29T06:06:38;100364.66;;;-1.08;100.00
54512;BME280;40419;47.438;19.026;2022-12-29T06:09:09;100375.06;;;-1.05;100.00
54512;BME280;40419;47.438;19.026;2022-12-29T06:11:36;100372.06;;;-1.00;100.00
54512;BME280;40419;47.438;19.026;2022-12-29T06:14:05;100375.69;;;-1.01;100.00
54512;BME280;40419;47.438;19.026;2022-12-29T06:16:32;100376.84;;;-1.17;100.00
54512;BME280;40419;47.438;19.026;2022-12-29T06:19:01;100376.25;;;-1.09;100.00
54512;BME280;40419;47.438;19.026;2022-12-29T06:21:30;100374.81;;;-1.13;100.00
54512;BME280;40419;47.438;19.026;2022-12-29T06:24:01;100371.16;;;-1.12;100.00
54512;BME280;40419;47.438;19.026;2022-12-29T06:26:29;100374.13;;;-1.04;100.00
54512;BME280;40419;47.438;19.026;2022-12-29T06:28:55;100378.34;;;-1.26;100.00
54512;BME280;40419;47.438;19.026;2022-12-29T06:31:21;100384.25;;;-1.33;100.00
54512;BME280;40419;47.438;19.026;2022-12-29T06:33:48;100380.78;;;-1.22;100.00
54512;BME280;40419;47.438;19.026;2022-12-29T06:36:13;100377.53;;;-1.26;100.00
54512;BME280;40419;47.438;19.026;2022-12-29T06:38:39;100386.19;;;-1.35;100.00
54512;BME280;40419;47.438;19.026;2022-12-29T06:41:09;100374.03;;;-1.27;100.00
54512;BME280;40419;47.438;19.026;2022-12-29T06:43:53;100381.44;;;-1.19;100.00
54512;BME280;40419;47.438;19.026;2022-12-29T06:46:23;100388.28;;;-1.16;100.00
54512;BME280;40419;47.438;19.026;2022-12-29T06:48:48;100385.03;;;-1.20;100.00
54512;BME280;40419;47.438;19.026;2022-12-29T06:51:16;100390.78;;;-1.02;100.00
54512;BME280;40419;47.438;19.026;2022-12-29T06:53:42;100389.06;;;-1.03;100.00
54512;BME280;40419;47.438;19.026;2022-12-29T06:56:10;100398.28;;;-0.96;100.00
54512;BME280;40419;47.438;19.026;2022-12-29T06:58:38;100393.31;;;-1.00;100.00
54512;BME280;40419;47.438;19.026;2022-12-29T07:01:08;100392.97;;;-0.96;100.00
54512;BME280;40419;47.438;19.026;2022-12-29T07:03:38;100398.22;;;-0.83;100.00
54512;BME280;40419;47.438;19.026;2022-12-29T07:06:06;100396.78;;;-0.76;100.00
54512;BME280;40419;47.438;19.026;2022-12-29T07:08:34;100386.91;;;-0.74;100.00
54512;BME280;40419;47.438;19.026;2022-12-29T07:11:04;100393.03;;;-0.73;100.00
54512;BME280;40419;47.438;19.026;2022-12-29T07:13:30;100407.59;;;-0.66;100.00
54512;BME280;40419;47.438;19.026;2022-12-29T07:15:55;100400.31;;;-0.75;100.00
54512;BME280;40419;47.438;19.026;2022-12-29T07:18:26;100418.41;;;-0.80;100.00
54512;BME280;40419;47.438;19.026;2022-12-29T07:20:51;100409.72;;;-0.71;100.00
54512;BME280;40419;47.438;19.026;2022-12-29T07:23:17;100415.03;;;-0.82;100.00
54512;BME280;40419;47.438;19.026;2022-12-29T07:25:43;100405.47;;;-0.85;100.00
54512;BME280;40419;47.438;19.026;2022-12-29T07:28:12;100411.53;;;-0.72;100.00
54512;BME280;40419;47.438;19.026;2022-12-29T07:30:40;100410.72;;;-0.72;100.00
54512;BME280;40419;47.438;19.026;2022-12-29T07:33:08;100415.50;;;-0.77;100.00
54512;BME280;40419;47.438;19.026;2022-12-29T07:35:34;100403.44;;;-0.70;100.00
54512;BME280;40419;47.438;19.026;2022-12-29T07:38:04;100408.81;;;-0.59;100.00
54512;BME280;40419;47.438;19.026;2022-12-29T07:40:30;100404.72;;;-0.40;100.00
54512;BME280;40419;47.438;19.026;2022-12-29T07:42:55;100412.44;;;-0.60;100.00
54512;BME280;40419;47.438;19.026;2022-12-29T07:45:32;100413.16;;;-0.58;100.00
54512;BME280;40419;47.438;19.026;2022-12-29T07:48:12;100412.19;;;-0.57;100.00
54512;BME280;40419;47.438;19.026;2022-12-29T07:50:37;100409.66;;;-0.58;100.00
54512;BME280;40419;47.438;19.026;2022-12-29T07:53:03;100406.22;;;-0.72;100.00
54512;BME280;40419;47.438;19.026;2022-12-29T07:55:29;100413.25;;;-0.70;100.00
54512;BME280;40419;47.438;19.026;2022-12-29T07:57:59;100410.13;;;-0.64;100.00
54512;BME280;40419;47.438;19.026;2022-12-29T08:00:24;100421.59;;;-0.64;100.00
54512;BME280;40419;47.438;19.026;2022-12-29T08:02:53;100423.66;;;-0.56;100.00
54512;BME280;40419;47.438;19.026;2022-12-29T08:05:23;100417.16;;;-0.52;100.00
54512;BME280;40419;47.438;19.026;2022-12-29T08:07:48;100414.13;;;-0.47;100.00
54512;BME280;40419;47.438;19.026;2022-12-29T08:10:16;100413.78;;;-0.43;100.00
54512;BME280;40419;47.438;19.026;2022-12-29T08:12:42;100413.56;;;-0.28;100.00
54512;BME280;40419;47.438;19.026;2022-12-29T08:15:11;100407.13;;;-0.48;100.00
54512;BME280;40419;47.438;19.026;2022-12-29T08:17:39;100407.97;;;-0.48;100.00
54512;BME280;40419;47.438;19.026;2022-12-29T08:20:08;100417.44;;;-0.44;100.00
54512;BME280;40419;47.438;19.026;2022-12-29T08:22:36;100409.00;;;-0.15;100.00
54512;BME280;40419;47.438;19.026;2022-12-29T08:25:02;100407.75;;;-0.33;100.00
54512;BME280;40419;47.438;19.026;2022-12-29T08:27:30;100413.09;;;-0.22;100.00
54512;BME280;40419;47.438;19.026;2022-12-29T08:29:58;100391.06;;;-0.24;100.00
54512;BME280;40419;47.438;19.026;2022-12-29T08:32:26;100392.78;;;-0.12;100.00
54512;BME280;40419;47.438;19.026;2022-12-29T08:34:57;100391.31;;;-0.05;100.00
54512;BME280;40419;47.438;19.026;2022-12-29T08:37:23;100386.09;;;-0.29;100.00
54512;BME280;40419;47.438;19.026;2022-12-29T08:39:48;100391.31;;;-0.27;100.00
54512;BME280;40419;47.438;19.026;2022-12-29T08:42:14;100389.38;;;-0.25;100.00
54512;BME280;40419;47.438;19.026;2022-12-29T08:44:40;100380.66;;;-0.05;100.00
54512;BME280;40419;47.438;19.026;2022-12-29T08:47:11;100393.13;;;-0.05;100.00
54512;BME280;40419;47.438;19.026;2022-12-29T08:49:39;100395.44;;;-0.01;100.00
54512;BME280;40419;47.438;19.026;2022-12-29T08:52:07;100390.81;;;0.24;100.00
54512;BME280;40419;47.438;19.026;2022-12-29T08:54:36;100380.91;;;-0.08;100.00
54512;BME280;40419;47.438;19.026;2022-12-29T08:57:01;100392.28;;;-0.06;100.00
54512;BME280;40419;47.438;19.026;2022-12-29T08:59:38;100394.59;;;-0.01;100.00
54512;BME280;40419;47.438;19.026;2022-12-29T09:02:04;100399.41;;;-0.29;100.00
54512;BME280;40419;47.438;19.026;2022-12-29T09:04:29;100382.13;;;-0.34;100.00
54512;BME280;40419;47.438;19.026;2022-12-29T09:06:55;100369.16;;;-0.05;100.00
54512;BME280;40419;47.438;19.026;2022-12-29T09:09:25;100380.19;;;0.02;100.00
54512;BME280;40419;47.438;19.026;2022-12-29T09:11:55;100370.59;;;0.10;100.00
54512;BME280;40419;47.438;19.026;2022-12-29T09:14:23;100371.50;;;-0.12;100.00
54512;BME280;40419;47.438;19.026;2022-12-29T09:16:51;100373.28;;;-0.24;100.00
54512;BME280;40419;47.438;19.026;2022-12-29T09:19:39;100369.28;;;-0.29;100.00
54512;BME280;40419;47.438;19.026;2022-12-29T09:22:05;100374.03;;;-0.10;100.00
54512;BME280;40419;47.438;19.026;2022-12-29T09:24:33;100362.28;;;-0.19;100.00
54512;BME280;40419;47.438;19.026;2022-12-29T09:26:58;100362.66;;;-0.01;100.00
54512;BME280;40419;47.438;19.026;2022-12-29T09:29:27;100367.19;;;0.31;100.00
54512;BME280;40419;47.438;19.026;2022-12-29T09:31:55;100359.28;;;0.41;100.00
54512;BME280;40419;47.438;19.026;2022-12-29T09:34:23;100356.69;;;0.07;100.00
54512;BME280;40419;47.438;19.026;2022-12-29T09:36:48;100355.84;;;0.17;100.00
54512;BME280;40419;47.438;19.026;2022-12-29T09:39:16;100351.72;;;0.25;100.00
54512;BME280;40419;47.438;19.026;2022-12-29T09:42:03;100345.50;;;0.35;100.00
54512;BME280;40419;47.438;19.026;2022-12-29T09:47:29;100344.81;;;0.22;100.00
54512;BME280;40419;47.438;19.026;2022-12-29T09:50:27;100342.63;;;0.27;100.00
54512;BME280;40419;47.438;19.026;2022-12-29T09:58:10;100334.47;;;0.40;100.00
54512;BME280;40419;47.438;19.026;2022-12-29T10:03:47;100336.00;;;0.54;100.00
54512;BME280;40419;47.438;19.026;2022-12-29T10:19:45;100321.06;;;0.63;100.00
54512;BME280;40419;47.438;19.026;2022-12-29T10:22:51;100317.06;;;0.68;100.00
54512;BME280;40419;47.438;19.026;2022-12-29T10:25:25;100308.91;;;0.49;100.00
54512;BME280;40419;47.438;19.026;2022-12-29T10:27:53;100308.66;;;0.41;100.00
54512;BME280;40419;47.438;19.026;2022-12-29T10:30:20;100311.00;;;0.66;100.00
54512;BME280;40419;47.438;19.026;2022-12-29T10:32:55;100304.44;;;0.70;100.00
54512;BME280;40419;47.438;19.026;2022-12-29T10:35:45;100298.28;;;0.70;100.00
54512;BME280;40419;47.438;19.026;2022-12-29T10:43:50;100297.66;;;0.66;100.00
54512;BME280;40419;47.438;19.026;2022-12-29T10:46:25;100302.44;;;0.84;100.00
54512;BME280;40419;47.438;19.026;2022-12-29T10:48:55;100303.25;;;0.63;100.00
54512;BME280;40419;47.438;19.026;2022-12-29T10:51:34;100293.13;;;0.78;100.00
54512;BME280;40419;47.438;19.026;2022-12-29T10:54:10;100291.69;;;0.53;100.00
54512;BME280;40419;47.438;19.026;2022-12-29T10:56:51;100291.31;;;0.58;100.00
54512;BME280;40419;47.438;19.026;2022-12-29T10:59:23;100279.69;;;0.80;100.00
54512;BME280;40419;47.438;19.026;2022-12-29T11:01:58;100285.22;;;0.88;100.00
54512;BME280;40419;47.438;19.026;2022-12-29T11:04:52;100284.56;;;0.75;100.00
54512;BME280;40419;47.438;19.026;2022-12-29T11:07:21;100276.03;;;0.81;100.00
54512;BME280;40419;47.438;19.026;2022-12-29T11:09:49;100284.00;;;0.92;100.00
54512;BME280;40419;47.438;19.026;2022-12-29T11:12:25;100284.03;;;0.81;100.00
54512;BME280;40419;47.438;19.026;2022-12-29T11:17:57;100287.94;;;0.98;100.00
54512;BME280;40419;47.438;19.026;2022-12-29T11:20:37;100280.44;;;1.13;100.00
54512;BME280;40419;47.438;19.026;2022-12-29T11:23:33;100267.06;;;1.03;100.00
54512;BME280;40419;47.438;19.026;2022-12-29T11:28:37;100268.09;;;0.91;100.00
54512;BME280;40419;47.438;19.026;2022-12-29T11:31:07;100262.38;;;1.16;100.00
54512;BME280;40419;47.438;19.026;2022-12-29T11:33:37;100269.78;;;0.92;100.00
54512;BME280;40419;47.438;19.026;2022-12-29T11:36:23;100259.78;;;1.36;100.00
54512;BME280;40419;47.438;19.026;2022-12-29T11:38:51;100250.78;;;1.27;100.00
54512;BME280;40419;47.438;19.026;2022-12-29T11:41:23;100257.91;;;0.96;100.00
54512;BME280;40419;47.438;19.026;2022-12-29T11:43:53;100260.88;;;1.02;100.00
54512;BME280;40419;47.438;19.026;2022-12-29T11:46:27;100243.59;;;1.18;100.00
54512;BME280;40419;47.438;19.026;2022-12-29T11:48:56;100241.53;;;1.10;100.00
54512;BME280;40419;47.438;19.026;2022-12-29T11:51:41;100237.75;;;1.03;100.00
54512;BME280;40419;47.438;19.026;2022-12-29T11:54:17;100244.81;;;1.14;100.00
54512;BME280;40419;47.438;19.026;2022-12-29T11:56:48;100241.19;;;1.15;100.00
54512;BME280;40419;47.438;19.026;2022-12-29T12:04:41;100238.84;;;1.31;100.00
54512;BME280;40419;47.438;19.026;2022-12-29T12:09:38;100245.88;;;1.63;100.00
54512;BME280;40419;47.438;19.026;2022-12-29T12:12:15;100238.38;;;1.57;100.00
54512;BME280;40419;47.438;19.026;2022-12-29T12:14:54;100242.47;;;1.61;100.00
54512;BME280;40419;47.438;19.026;2022-12-29T12:17:51;100239.50;;;1.54;100.00
54512;BME280;40419;47.438;19.026;2022-12-29T12:20:45;100227.13;;;1.53;100.00
54512;BME280;40419;47.438;19.026;2022-12-29T12:26:35;100230.09;;;1.60;100.00
54512;BME280;40419;47.438;19.026;2022-12-29T12:34:24;100217.06;;;1.67;100.00
54512;BME280;40419;47.438;19.026;2022-12-29T12:39:56;100185.31;;;1.73;100.00
54512;BME280;40419;47.438;19.026;2022-12-29T12:47:50;100180.41;;;1.88;100.00
54512;BME280;40419;47.438;19.026;2022-12-29T13:03:47;100184.78;;;1.99;100.00
54512;BME280;40419;47.438;19.026;2022-12-29T13:09:03;100190.69;;;2.12;100.00
54512;BME280;40419;47.438;19.026;2022-12-29T13:19:25;100202.50;;;2.00;100.00
54512;BME280;40419;47.438;19.026;2022-12-29T13:28:04;100202.50;;;2.00;100.00
54512;BME280;40419;47.438;19.026;2022-12-29T13:36:01;100198.97;;;1.90;100.00
54512;BME280;40419;47.438;19.026;2022-12-29T13:38:44;100199.00;;;2.00;100.00
54512;BME280;40419;47.438;19.026;2022-12-29T13:41:44;100209.13;;;2.16;100.00
54512;BME280;40419;47.438;19.026;2022-12-29T13:44:20;100207.47;;;2.34;100.00
54512;BME280;40419;47.438;19.026;2022-12-29T13:46:55;100206.19;;;2.28;100.00
54512;BME280;40419;47.438;19.026;2022-12-29T13:49:23;100205.59;;;2.25;100.00
54512;BME280;40419;47.438;19.026;2022-12-29T13:52:03;100206.19;;;2.09;100.00
54512;BME280;40419;47.438;19.026;2022-12-29T13:54:51;100214.88;;;2.11;100.00
54512;BME280;40419;47.438;19.026;2022-12-29T13:57:50;100195.47;;;2.19;100.00
54512;BME280;40419;47.438;19.026;2022-12-29T14:00:26;100200.81;;;2.19;100.00
54512;BME280;40419;47.438;19.026;2022-12-29T14:03:12;100218.00;;;2.26;100.00
54512;BME280;40419;47.438;19.026;2022-12-29T14:06:04;100213.91;;;2.12;100.00
54512;BME280;40419;47.438;19.026;2022-12-29T14:08:35;100217.97;;;2.06;100.00
54512;BME280;40419;47.438;19.026;2022-12-29T14:11:14;100221.38;;;2.18;100.00
54512;BME280;40419;47.438;19.026;2022-12-29T14:13:45;100217.00;;;2.17;100.00
54512;BME280;40419;47.438;19.026;2022-12-29T14:18:50;100214.34;;;2.07;100.00
54512;BME280;40419;47.438;19.026;2022-12-29T14:23:43;100213.59;;;2.05;100.00
54512;BME280;40419;47.438;19.026;2022-12-29T14:26:15;100211.66;;;2.07;100.00
54512;BME280;40419;47.438;19.026;2022-12-29T14:28:49;100219.66;;;2.17;100.00
54512;BME280;40419;47.438;19.026;2022-12-29T14:36:42;100209.78;;;1.88;100.00
54512;BME280;40419;47.438;19.026;2022-12-29T14:52:55;100215.69;;;1.72;100.00
54512;BME280;40419;47.438;19.026;2022-12-29T14:58:06;100225.50;;;1.62;100.00
54512;BME280;40419;47.438;19.026;2022-12-29T15:00:38;100222.72;;;1.83;100.00
54512;BME280;40419;47.438;19.026;2022-12-29T15:05:44;100226.09;;;1.75;100.00
54512;BME280;40419;47.438;19.026;2022-12-29T15:08:13;100221.25;;;1.59;100.00
54512;BME280;40419;47.438;19.026;2022-12-29T15:10:53;100211.44;;;1.70;100.00
54512;BME280;40419;47.438;19.026;2022-12-29T15:13:32;100213.38;;;1.58;100.00
54512;BME280;40419;47.438;19.026;2022-12-29T15:16:00;100239.38;;;1.56;100.00
54512;BME280;40419;47.438;19.026;2022-12-29T15:18:26;100228.44;;;1.59;100.00
54512;BME280;40419;47.438;19.026;2022-12-29T15:21:11;100229.72;;;1.65;100.00
54512;BME280;40419;47.438;19.026;2022-12-29T15:23:43;100232.69;;;1.71;100.00
54512;BME280;40419;47.438;19.026;2022-12-29T15:26:10;100245.47;;;1.77;100.00
54512;BME280;40419;47.438;19.026;2022-12-29T15:28:43;100236.72;;;1.56;100.00
54512;BME280;40419;47.438;19.026;2022-12-29T15:31:21;100233.38;;;1.73;100.00
54512;BME280;40419;47.438;19.026;2022-12-29T15:33:49;100227.69;;;1.57;100.00
54512;BME280;40419;47.438;19.026;2022-12-29T15:36:21;100231.50;;;1.54;100.00
54512;BME280;40419;47.438;19.026;2022-12-29T15:38:49;100234.41;;;1.41;100.00
54512;BME280;40419;47.438;19.026;2022-12-29T15:44:32;100232.66;;;1.21;100.00